createdAt,value
2022-10-13T00:01:11.778Z,15.85
2022-10-13T00:03:40.629Z,15.10
2022-10-13T00:06:11.698Z,15.35
2022-10-13T00:08:39.665Z,15.50
2022-10-13T00:11:12.614Z,14.98
2022-10-13T00:13:40.824Z,14.07
2022-10-13T00:16:09.804Z,16.25
2022-10-13T00:18:37.684Z,14.70
2022-10-13T00:21:09.923Z,12.70
2022-10-13T00:23:37.743Z,14.07
2022-10-13T00:26:08.585Z,14.43
2022-10-13T00:28:36.530Z,14.35
2022-10-13T00:31:04.367Z,15.40
2022-10-13T00:33:35.439Z,15.43
2022-10-13T00:36:03.115Z,17.33
2022-10-13T00:38:32.006Z,17.80
2022-10-13T00:40:59.611Z,19.70
2022-10-13T00:43:29.111Z,18.23
2022-10-13T00:45:56.672Z,16.58
2022-10-13T00:48:27.649Z,20.15
2022-10-13T00:50:56.989Z,17.80
2022-10-13T00:53:27.902Z,18.52
2022-10-13T00:55:56.931Z,20.30
2022-10-13T00:58:31.161Z,16.48
2022-10-13T01:00:59.896Z,16.92
2022-10-13T01:03:28.065Z,17.67
2022-10-13T01:05:58.911Z,18.83
2022-10-13T01:08:28.889Z,18.60
2022-10-13T01:11:11.186Z,18.33
2022-10-13T01:13:43.634Z,18.80
2022-10-13T01:16:20.342Z,16.98
2022-10-13T01:18:56.451Z,17.50
2022-10-13T01:21:34.119Z,16.83
2022-10-13T01:24:29.272Z,17.55
2022-10-13T01:27:14.409Z,17.42
2022-10-13T01:30:05.720Z,17.70
2022-10-13T01:32:44.087Z,17.38
2022-10-13T01:35:17.445Z,17.77
2022-10-13T01:37:50.771Z,18.23
2022-10-13T01:40:25.535Z,19.50
2022-10-13T01:42:59.505Z,17.65
2022-10-13T01:45:34.847Z,15.85
2022-10-13T01:48:03.999Z,18.80
2022-10-13T01:50:33.715Z,16.73
2022-10-13T01:53:04.448Z,18.92
2022-10-13T01:55:32.210Z,16.70
2022-10-13T01:57:59.787Z,17.95
2022-10-13T02:00:44.468Z,16.17
2022-10-13T02:03:16.877Z,18.88
2022-10-13T02:05:49.351Z,17.30
2022-10-13T02:08:24.475Z,15.18
2022-10-13T02:10:59.265Z,16.15
2022-10-13T02:13:30.276Z,17.38
2022-10-13T02:16:02.443Z,17.05
2022-10-13T02:18:34.027Z,16.20
2022-10-13T02:21:02.851Z,17.13
2022-10-13T02:23:31.247Z,16.15
2022-10-13T02:26:01.170Z,18.90
2022-10-13T02:28:29.230Z,15.63
2022-10-13T02:30:57.036Z,15.68
2022-10-13T02:33:25.951Z,15.82
2022-10-13T02:35:53.721Z,17.60
2022-10-13T02:38:21.398Z,15.43
2022-10-13T02:40:49.085Z,16.10
2022-10-13T02:43:16.719Z,16.45
2022-10-13T02:45:45.247Z,17.35
2022-10-13T02:48:12.787Z,15.82
2022-10-13T02:50:41.729Z,15.48
2022-10-13T02:53:09.243Z,15.57
2022-10-13T02:55:36.997Z,15.45
2022-10-13T02:58:04.563Z,15.23
2022-10-13T03:00:32.627Z,16.63
2022-10-13T03:03:00.739Z,16.38
2022-10-13T03:05:28.319Z,15.32
2022-10-13T03:07:57.206Z,16.75
2022-10-13T03:10:24.818Z,16.70
2022-10-13T03:12:55.147Z,15.52
2022-10-13T03:15:22.774Z,15.57
2022-10-13T03:17:50.411Z,15.88
2022-10-13T03:20:18.489Z,16.83
2022-10-13T03:22:49.752Z,15.45
2022-10-13T03:25:19.130Z,15.48
2022-10-13T03:27:46.659Z,16.38
2022-10-13T03:30:14.526Z,14.43
2022-10-13T03:32:42.139Z,15.60
2022-10-13T03:35:10.021Z,15.40
2022-10-13T03:37:37.685Z,19.08
2022-10-13T03:40:06.535Z,16.27
2022-10-13T03:42:36.679Z,15.65
2022-10-13T03:45:04.580Z,15.30
2022-10-13T03:47:36.779Z,14.52
2022-10-13T03:50:06.227Z,17.55
2022-10-13T03:52:34.041Z,15.18
2022-10-13T03:55:01.603Z,17.90
2022-10-13T03:57:29.243Z,15.77
2022-10-13T03:59:58.237Z,17.58
2022-10-13T04:02:27.513Z,16.45
2022-10-13T04:04:55.572Z,16.30
2022-10-13T04:07:23.170Z,16.90
2022-10-13T04:09:50.782Z,16.73
2022-10-13T04:12:20.805Z,17.23
2022-10-13T04:14:48.946Z,15.88
2022-10-13T04:17:17.863Z,16.73
2022-10-13T04:19:45.671Z,15.35
2022-10-13T04:22:13.321Z,17.52
2022-10-13T04:24:41.945Z,15.45
2022-10-13T04:27:10.069Z,15.45
2022-10-13T04:29:37.750Z,15.88
2022-10-13T04:32:05.598Z,16.98
2022-10-13T04:34:34.630Z,15.90
2022-10-13T04:37:02.168Z,18.10
2022-10-13T04:39:29.983Z,15.93
2022-10-13T04:41:57.944Z,16.77
2022-10-13T04:44:25.536Z,19.00
2022-10-13T04:46:53.077Z,17.35
2022-10-13T04:49:20.663Z,21.75
2022-10-13T04:51:49.607Z,16.42
2022-10-13T04:54:17.172Z,15.75
2022-10-13T04:56:45.409Z,15.35
2022-10-13T04:59:13.397Z,14.60
2022-10-13T05:01:41.038Z,17.52
2022-10-13T05:04:13.919Z,16.42
2022-10-13T05:07:12.701Z,16.02
2022-10-13T05:09:32.179Z,15.13
2022-10-13T05:11:59.758Z,17.10
2022-10-13T05:14:27.363Z,17.15
2022-10-13T05:16:54.911Z,18.15
2022-10-13T05:19:22.509Z,15.90
2022-10-13T05:21:50.028Z,17.65
2022-10-13T05:24:17.626Z,17.10
2022-10-13T05:26:49.405Z,15.77
2022-10-13T05:29:18.250Z,14.73
2022-10-13T05:31:45.801Z,14.32
2022-10-13T05:34:13.571Z,16.95
2022-10-13T05:36:41.120Z,14.40
2022-10-13T05:39:08.695Z,17.50
2022-10-13T05:41:36.943Z,15.02
2022-10-13T05:44:10.157Z,14.88
2022-10-13T05:46:42.992Z,16.63
2022-10-13T05:49:10.839Z,15.43
2022-10-13T05:51:42.593Z,14.93
2022-10-13T05:54:13.990Z,15.02
2022-10-13T05:56:45.839Z,18.30
2022-10-13T05:59:18.532Z,16.85
2022-10-13T06:01:48.798Z,15.45
2022-10-13T06:04:20.091Z,17.90
2022-10-13T06:06:49.409Z,15.80
2022-10-13T06:09:17.283Z,16.55
2022-10-13T06:11:44.886Z,18.80
2022-10-13T06:14:12.508Z,15.38
2022-10-13T06:16:42.095Z,19.30
2022-10-13T06:19:10.042Z,19.13
2022-10-13T06:21:37.579Z,17.52
2022-10-13T06:24:05.623Z,16.10
2022-10-13T06:26:34.353Z,15.80
2022-10-13T06:29:02.046Z,17.27
2022-10-13T06:31:29.711Z,17.08
2022-10-13T06:33:59.231Z,15.70
2022-10-13T06:36:27.081Z,18.42
2022-10-13T06:38:54.713Z,16.67
2022-10-13T06:41:22.990Z,15.18
2022-10-13T06:43:50.699Z,18.80
2022-10-13T06:46:18.561Z,15.68
2022-10-13T06:48:46.143Z,14.60
2022-10-13T06:51:15.300Z,15.98
2022-10-13T06:53:42.901Z,16.05
2022-10-13T06:56:11.040Z,16.27
2022-10-13T06:58:39.246Z,17.13
2022-10-13T07:01:07.197Z,16.90
2022-10-13T07:03:34.784Z,14.63
2022-10-13T07:06:02.636Z,13.57
2022-10-13T07:08:32.101Z,13.80
2022-10-13T07:10:59.990Z,14.65
2022-10-13T07:13:27.642Z,13.77
2022-10-13T07:15:55.334Z,16.02
2022-10-13T07:18:22.857Z,15.13
2022-10-13T07:20:50.575Z,15.55
2022-10-13T07:23:18.299Z,15.30
2022-10-13T07:25:47.226Z,16.90
2022-10-13T07:28:14.799Z,17.25
2022-10-13T07:30:42.517Z,15.73
2022-10-13T07:33:10.026Z,15.50
2022-10-13T07:35:39.618Z,15.65
2022-10-13T07:38:07.590Z,17.13
2022-10-13T07:40:35.539Z,15.57
2022-10-13T07:43:04.412Z,14.77
2022-10-13T07:45:32.231Z,18.25
2022-10-13T07:48:00.139Z,16.02
2022-10-13T07:50:27.756Z,16.90
2022-10-13T07:52:55.725Z,16.55
2022-10-13T07:55:23.605Z,15.90
2022-10-13T07:57:55.101Z,15.35
2022-10-13T08:00:24.401Z,17.52
2022-10-13T08:02:52.114Z,15.15
2022-10-13T08:05:19.714Z,17.58
2022-10-13T08:07:47.482Z,18.77
2022-10-13T08:10:15.194Z,17.08
2022-10-13T08:12:42.748Z,16.83
2022-10-13T08:15:11.296Z,18.05
2022-10-13T08:17:40.555Z,17.15
2022-10-13T08:20:08.771Z,18.15
2022-10-13T08:22:36.377Z,15.93
2022-10-13T08:25:04.659Z,17.27
2022-10-13T08:27:50.213Z,17.45
2022-10-13T08:30:18.908Z,17.52
2022-10-13T08:32:47.957Z,15.68
2022-10-13T08:35:15.883Z,16.65
2022-10-13T08:37:43.760Z,14.60
2022-10-13T08:40:15.778Z,14.85
2022-10-13T08:42:44.869Z,18.15
2022-10-13T08:45:40.309Z,18.42
2022-10-13T08:48:15.294Z,15.90
2022-10-13T08:50:45.269Z,16.58
2022-10-13T08:53:19.887Z,17.27
2022-10-13T08:55:52.291Z,17.10
2022-10-13T08:58:23.310Z,17.33
2022-10-13T09:00:58.808Z,15.93
2022-10-13T09:03:29.918Z,14.65
2022-10-13T09:06:11.589Z,14.20
2022-10-13T09:08:43.994Z,14.98
2022-10-13T09:11:13.075Z,17.42
2022-10-13T09:13:41.189Z,16.45
2022-10-13T09:16:09.250Z,14.32
2022-10-13T09:18:38.452Z,13.95
2022-10-13T09:21:21.129Z,15.30
2022-10-13T09:23:51.255Z,14.18
2022-10-13T09:26:23.007Z,15.57
2022-10-13T09:28:51.353Z,15.77
2022-10-13T09:31:24.449Z,15.82
2022-10-13T09:34:01.018Z,14.05
2022-10-13T09:36:29.415Z,14.93
2022-10-13T09:39:09.750Z,16.40
2022-10-13T09:41:38.761Z,15.73
2022-10-13T09:44:13.374Z,13.00
2022-10-13T09:46:49.387Z,13.20
2022-10-13T09:49:34.519Z,12.05
2022-10-13T09:52:08.762Z,13.70
2022-10-13T09:54:45.666Z,13.45
2022-10-13T09:57:18.627Z,16.02
2022-10-13T09:59:50.291Z,13.98
2022-10-13T10:02:31.695Z,15.23
2022-10-13T10:05:05.991Z,13.57
2022-10-13T10:07:34.393Z,14.50
2022-10-13T10:10:07.019Z,14.82
2022-10-13T10:12:38.179Z,13.25
2022-10-13T10:15:20.524Z,11.98
2022-10-13T10:17:55.204Z,14.82
2022-10-13T10:20:41.340Z,14.70
2022-10-13T10:23:20.177Z,13.05
2022-10-13T10:25:51.899Z,13.73
2022-10-13T10:28:44.328Z,15.25
2022-10-13T10:31:25.379Z,15.55
2022-10-13T10:34:02.545Z,13.07
2022-10-13T10:36:39.734Z,14.57
2022-10-13T10:39:21.091Z,14.88
2022-10-13T10:41:58.403Z,15.50
2022-10-13T10:44:31.477Z,14.82
2022-10-13T10:47:03.475Z,14.35
2022-10-13T10:52:06.858Z,16.08
2022-10-13T10:54:49.058Z,14.73
2022-10-13T10:57:24.657Z,14.98
2022-10-13T11:00:04.745Z,14.70
2022-10-13T11:02:48.957Z,16.83
2022-10-13T11:05:17.553Z,13.63
2022-10-13T11:08:01.481Z,13.30
2022-10-13T11:10:30.423Z,11.93
2022-10-13T11:13:22.207Z,13.88
2022-10-13T11:15:53.649Z,13.10
2022-10-13T11:19:06.973Z,13.55
2022-10-13T11:22:24.372Z,12.55
2022-10-13T11:25:05.199Z,15.40
2022-10-13T11:27:45.365Z,18.10
2022-10-13T11:30:47.111Z,10.65
2022-10-13T11:33:51.985Z,13.93
2022-10-13T11:36:49.315Z,13.73
2022-10-13T11:39:45.129Z,14.80
2022-10-13T11:42:25.539Z,11.88
2022-10-13T11:44:57.696Z,10.82
2022-10-13T11:47:54.723Z,10.77
2022-10-13T11:50:29.953Z,10.90
2022-10-13T11:53:12.908Z,12.00
2022-10-13T11:55:48.687Z,11.57
2022-10-13T11:58:20.665Z,11.30
2022-10-13T12:00:53.761Z,12.07
2022-10-13T12:03:23.847Z,11.43
2022-10-13T12:05:51.958Z,13.73
2022-10-13T12:08:21.091Z,8.52
2022-10-13T12:10:55.597Z,12.85
2022-10-13T12:13:27.246Z,8.00
2022-10-13T12:16:00.922Z,11.38
2022-10-13T12:18:33.885Z,9.93
2022-10-13T12:21:03.977Z,10.27
2022-10-13T12:23:33.651Z,7.63
2022-10-13T12:26:01.635Z,9.95
2022-10-13T12:28:44.066Z,12.77
2022-10-13T12:31:19.710Z,8.50
2022-10-13T12:33:53.760Z,6.72
2022-10-13T12:36:24.045Z,11.23
2022-10-13T12:38:53.740Z,8.35
2022-10-13T12:41:26.785Z,10.27
2022-10-13T12:43:56.690Z,10.32
2022-10-13T12:46:38.147Z,8.27
2022-10-13T12:49:06.261Z,8.98
2022-10-13T12:51:35.478Z,8.65
2022-10-13T12:54:08.534Z,9.75
2022-10-13T12:56:36.545Z,8.82
2022-10-13T12:59:05.572Z,7.30
2022-10-13T13:01:34.770Z,9.48
2022-10-13T13:04:16.035Z,8.82
2022-10-13T13:06:54.234Z,10.00
2022-10-13T13:09:27.210Z,7.35
2022-10-13T13:12:20.789Z,9.60
2022-10-13T13:14:52.303Z,9.05
2022-10-13T13:17:57.645Z,9.02
2022-10-13T13:20:25.205Z,9.35
2022-10-13T13:22:52.787Z,7.15
2022-10-13T13:25:20.551Z,8.40
2022-10-13T13:27:48.483Z,6.13
2022-10-13T13:30:20.995Z,7.10
2022-10-13T13:32:49.914Z,7.97
2022-10-13T13:35:17.661Z,8.90
2022-10-13T13:37:47.961Z,10.68
2022-10-13T13:40:17.694Z,7.95
2022-10-13T13:42:45.416Z,8.10
2022-10-13T13:45:13.961Z,9.77
2022-10-13T13:47:43.462Z,8.25
2022-10-13T13:50:16.410Z,7.80
2022-10-13T13:52:48.315Z,8.40
2022-10-13T13:55:16.182Z,8.60
2022-10-13T13:57:44.870Z,6.82
2022-10-13T14:00:14.582Z,7.60
2022-10-13T14:02:44.888Z,6.47
2022-10-13T14:05:13.360Z,8.27
2022-10-13T14:07:41.449Z,7.32
2022-10-13T14:10:10.951Z,8.20
2022-10-13T14:12:39.100Z,9.63
2022-10-13T14:15:07.991Z,10.27
2022-10-13T14:17:35.602Z,8.63
2022-10-13T14:20:05.414Z,8.55
2022-10-13T14:22:38.452Z,8.68
2022-10-13T14:25:07.462Z,7.15
2022-10-13T14:27:35.343Z,7.85
2022-10-13T14:30:03.285Z,7.35
2022-10-13T14:32:30.911Z,8.75
2022-10-13T14:34:58.570Z,8.55
2022-10-13T14:37:32.707Z,7.45
2022-10-13T14:40:01.083Z,10.05
2022-10-13T14:42:28.642Z,8.82
2022-10-13T14:44:56.235Z,9.27
2022-10-13T14:47:24.043Z,9.77
2022-10-13T14:49:51.656Z,9.43
2022-10-13T14:52:19.372Z,9.32
2022-10-13T14:54:48.514Z,8.18
2022-10-13T14:57:16.382Z,10.73
2022-10-13T14:59:44.625Z,11.90
2022-10-13T15:02:12.946Z,10.02
2022-10-13T15:04:50.696Z,8.88
2022-10-13T15:07:18.543Z,10.23
2022-10-13T15:09:52.803Z,10.45
2022-10-13T15:12:31.687Z,9.80
2022-10-13T15:14:59.249Z,11.93
2022-10-13T15:17:27.854Z,14.00
2022-10-13T15:19:55.410Z,10.95
2022-10-13T15:22:23.558Z,10.73
2022-10-13T15:24:52.631Z,9.88
2022-10-13T15:27:20.434Z,10.73
2022-10-13T15:29:47.990Z,9.52
2022-10-13T15:32:18.497Z,9.98
2022-10-13T15:34:52.120Z,10.13
2022-10-13T15:37:19.718Z,10.02
2022-10-13T15:39:51.962Z,11.48
2022-10-13T15:42:22.520Z,11.23
2022-10-13T15:45:08.855Z,11.00
2022-10-13T15:47:38.091Z,10.68
2022-10-13T15:50:06.171Z,10.73
2022-10-13T15:52:38.673Z,10.45
2022-10-13T15:55:06.882Z,11.55
2022-10-13T15:57:35.987Z,11.68
2022-10-13T16:00:03.829Z,9.77
2022-10-13T16:02:40.191Z,15.07
2022-10-13T16:05:09.507Z,12.13
2022-10-13T16:07:37.370Z,11.57
2022-10-13T16:10:05.464Z,13.13
2022-10-13T16:12:33.058Z,11.77
2022-10-13T16:15:02.134Z,12.00
2022-10-13T16:17:29.770Z,12.43
2022-10-13T16:19:57.653Z,11.18
2022-10-13T16:22:25.350Z,12.68
2022-10-13T16:24:52.999Z,11.88
2022-10-13T16:27:20.904Z,11.02
2022-10-13T16:29:48.578Z,12.45
2022-10-13T16:32:17.723Z,12.32
2022-10-13T16:34:48.241Z,12.77
2022-10-13T16:37:20.066Z,12.98
2022-10-13T16:39:51.747Z,12.07
2022-10-13T16:42:19.844Z,13.05
2022-10-13T16:44:47.414Z,13.23
2022-10-13T16:47:18.421Z,13.45
2022-10-13T16:49:48.042Z,13.52
2022-10-13T16:52:17.153Z,14.63
2022-10-13T16:54:44.930Z,13.27
2022-10-13T16:57:12.627Z,12.68
2022-10-13T16:59:40.293Z,13.90
2022-10-13T17:02:07.872Z,13.38
2022-10-13T17:04:38.163Z,13.40
2022-10-13T17:07:07.155Z,14.68
2022-10-13T17:09:35.358Z,13.95
2022-10-13T17:12:04.368Z,14.52
2022-10-13T17:14:32.119Z,12.50
2022-10-13T17:16:59.775Z,14.70
2022-10-13T17:19:27.419Z,13.73
2022-10-13T17:21:55.043Z,16.08
2022-10-13T17:24:23.976Z,13.30
2022-10-13T17:26:51.574Z,14.15
2022-10-13T17:29:19.179Z,15.23
2022-10-13T17:31:46.733Z,12.45
2022-10-13T17:34:14.321Z,14.38
2022-10-13T17:36:41.982Z,13.82
2022-10-13T17:39:11.198Z,14.02
2022-10-13T17:44:11.575Z,18.77
2022-10-13T17:46:39.801Z,15.43
2022-10-13T17:49:08.941Z,14.55
2022-10-13T17:51:36.611Z,15.82
2022-10-13T17:54:05.018Z,17.80
2022-10-13T17:56:33.184Z,14.07
2022-10-13T17:59:02.928Z,14.85
2022-10-13T18:01:32.505Z,14.40
2022-10-13T18:04:02.034Z,15.93
2022-10-13T18:06:37.747Z,16.05
2022-10-13T18:09:07.280Z,18.55
2022-10-13T18:11:36.968Z,17.95
2022-10-13T18:14:06.814Z,15.93
2022-10-13T18:16:35.261Z,20.80
2022-10-13T18:19:05.004Z,18.35
2022-10-13T18:21:32.991Z,15.07
2022-10-13T18:24:02.657Z,16.27
2022-10-13T18:26:33.708Z,16.55
2022-10-13T18:29:02.331Z,16.87
2022-10-13T18:31:33.420Z,18.40
2022-10-13T18:34:02.591Z,17.73
2022-10-13T18:36:32.645Z,17.35
2022-10-13T18:39:03.851Z,19.05
2022-10-13T18:41:32.675Z,16.83
2022-10-13T18:44:00.273Z,17.52
2022-10-13T18:46:27.979Z,20.58
2022-10-13T18:48:58.300Z,17.73
2022-10-13T18:51:28.400Z,15.90
2022-10-13T18:53:59.559Z,18.13
2022-10-13T18:56:29.011Z,17.70
2022-10-13T18:58:59.807Z,19.30
2022-10-13T19:01:29.638Z,18.00
2022-10-13T19:03:59.410Z,16.65
2022-10-13T19:06:30.335Z,19.42
2022-10-13T19:09:00.467Z,16.52
2022-10-13T19:11:30.065Z,17.63
2022-10-13T19:13:59.244Z,18.92
2022-10-13T19:16:29.231Z,17.42
2022-10-13T19:18:58.767Z,17.00
2022-10-13T19:21:26.766Z,19.85
2022-10-13T19:23:55.107Z,17.67
2022-10-13T19:26:26.161Z,16.63
2022-10-13T19:28:56.058Z,16.30
2022-10-13T19:31:25.958Z,18.20
2022-10-13T19:33:55.605Z,18.92
2022-10-13T19:36:27.215Z,14.82
2022-10-13T19:38:56.251Z,13.82
2022-10-13T19:41:24.312Z,15.82
2022-10-13T19:43:52.016Z,14.57
2022-10-13T19:46:20.239Z,15.52
2022-10-13T19:48:47.838Z,17.52
2022-10-13T19:51:15.582Z,16.30
2022-10-13T19:53:44.697Z,13.85
2022-10-13T19:56:20.766Z,14.65
2022-10-13T19:58:49.543Z,15.07
2022-10-13T20:01:19.112Z,14.63
2022-10-13T20:03:47.130Z,14.40
2022-10-13T20:06:15.478Z,15.48
2022-10-13T20:08:44.874Z,15.57
2022-10-13T20:11:15.138Z,16.08
2022-10-13T20:13:44.849Z,14.85
2022-10-13T20:16:14.507Z,15.38
2022-10-13T20:18:42.433Z,16.00
2022-10-13T20:21:12.874Z,14.60
2022-10-13T20:23:42.029Z,16.05
2022-10-13T20:26:13.868Z,14.38
2022-10-13T20:31:12.606Z,14.98
2022-10-13T20:33:41.034Z,13.88
2022-10-13T20:36:12.425Z,13.30
2022-10-13T20:38:40.437Z,14.13
2022-10-13T20:41:10.079Z,13.63
2022-10-13T20:43:39.003Z,14.98
2022-10-13T20:46:08.759Z,13.18
2022-10-13T20:49:05.121Z,15.60
2022-10-13T20:51:25.810Z,15.63
2022-10-13T20:53:53.695Z,15.20
2022-10-13T20:56:23.457Z,15.70
2022-10-13T20:58:53.313Z,19.20
2022-10-13T21:01:22.672Z,17.52
2022-10-13T21:03:52.656Z,14.50
2022-10-13T21:06:20.527Z,16.30
2022-10-13T21:08:48.676Z,14.90
2022-10-13T21:11:18.745Z,16.00
2022-10-13T21:13:46.631Z,15.98
2022-10-13T21:16:18.212Z,15.65
2022-10-13T21:18:47.904Z,19.25
2022-10-13T21:21:17.814Z,16.17
2022-10-13T21:23:46.287Z,14.70
2022-10-13T21:26:21.135Z,15.07
2022-10-13T21:28:49.874Z,15.25
2022-10-13T21:31:20.820Z,17.58
2022-10-13T21:33:48.957Z,16.52
2022-10-13T21:36:18.741Z,14.65
2022-10-13T21:38:47.267Z,15.85
2022-10-13T21:41:15.982Z,17.73
2022-10-13T21:43:43.651Z,17.50
2022-10-13T21:46:11.737Z,17.15
2022-10-13T21:48:45.323Z,18.40
2022-10-13T21:51:14.543Z,18.48
2022-10-13T21:53:42.493Z,16.60
2022-10-13T21:56:12.281Z,18.48
2022-10-13T21:58:40.127Z,21.23
2022-10-13T22:01:08.388Z,21.92
2022-10-13T22:03:36.433Z,19.48
2022-10-13T22:06:15.891Z,19.45
2022-10-13T22:08:47.306Z,21.65
2022-10-13T22:11:16.454Z,18.27
2022-10-13T22:13:44.262Z,20.70
2022-10-13T22:16:14.662Z,20.65
2022-10-13T22:18:43.076Z,20.55
2022-10-13T22:21:15.103Z,20.80
2022-10-13T22:23:42.928Z,20.88
2022-10-13T22:26:11.222Z,21.63
2022-10-13T22:28:39.540Z,20.55
2022-10-13T22:31:08.594Z,21.13
2022-10-13T22:33:37.609Z,20.55
2022-10-13T22:36:08.343Z,21.65
2022-10-13T22:38:37.572Z,22.30
2022-10-13T22:41:08.542Z,25.20
2022-10-13T22:43:36.562Z,21.20
2022-10-13T22:46:13.508Z,20.30
2022-10-13T22:48:41.783Z,22.60
2022-10-13T22:51:16.412Z,19.90
2022-10-13T22:53:45.390Z,20.67
2022-10-13T22:56:14.367Z,21.25
2022-10-13T22:58:41.953Z,21.83
2022-10-13T23:01:12.689Z,20.48
2022-10-13T23:03:40.861Z,23.58
2022-10-13T23:06:13.945Z,20.15
2022-10-13T23:08:41.649Z,20.80
2022-10-13T23:11:11.648Z,22.65
2022-10-13T23:13:39.450Z,21.17
2022-10-13T23:16:09.554Z,20.70
2022-10-13T23:18:38.398Z,21.50
2022-10-13T23:21:07.045Z,20.90
2022-10-13T23:23:35.425Z,21.63
2022-10-13T23:26:04.967Z,20.23
2022-10-13T23:28:34.974Z,21.73
2022-10-13T23:31:03.741Z,19.40
2022-10-13T23:33:31.379Z,22.42
2022-10-13T23:36:00.844Z,22.15
2022-10-13T23:38:29.988Z,21.27
2022-10-13T23:41:03.189Z,19.05
2022-10-13T23:43:30.776Z,20.17
2022-10-13T23:45:59.810Z,20.88
2022-10-13T23:48:28.084Z,21.25
2022-10-13T23:50:56.024Z,22.23
2022-10-13T23:53:24.003Z,22.15
2022-10-13T23:55:51.646Z,23.05
2022-10-13T23:58:26.115Z,22.05
